Stefarion — DJ2142 — position and weather

sailwx.info

Track history (hours):
 
Tides and Currents Weather Stations Pressure Air Temp Water Temp Dewpoint Dewpoint Depression Visibility Wind Speed Wind Dir Waves Ship Positions

Stefarion

Last reported at 2014-Jul-31 23:33 UTC. Time now 2014-Jul-31 23:39 UTC.
Position N 49°04' E 008°20'.

Length 12 m.

Type: Sailing vessel. MMSI: 211203080.

Date/timePositionNaut miles runAvg speedWind from/ knotsBaromVisibWave heightAir tempDewpointWater temp
2014-Jul-31 23:33N 49°04' E 008°20'0 0.0
2014-Jul-31 22:33N 49°04' E 008°20'0 0.0
2014-Jul-31 21:33N 49°04' E 008°20'0 0.0
2014-Jul-31 20:33N 49°04' E 008°20'0 0.1
2014-Jul-31 19:33N 49°04' E 008°20'0 0.0
2014-Jul-31 18:33N 49°04' E 008°20'0 0.0
2014-Jul-31 17:33N 49°04' E 008°20'0 0.0
2014-Jul-31 16:33N 49°04' E 008°20'0 0.0
2014-Jul-31 15:33N 49°04' E 008°20'0 0.0
2014-Jul-31 14:33N 49°04' E 008°20'0 0.0
2014-Jul-31 13:33N 49°04' E 008°20'0 0.0
2014-Jul-31 12:33N 49°04' E 008°20'0 0.0
2014-Jul-31 11:33N 49°04' E 008°20'0 0.0
2014-Jul-31 10:33N 49°04' E 008°20'0 0.1
2014-Jul-31 09:33N 49°04' E 008°20'0 0.0
2014-Jul-31 08:33N 49°04' E 008°20'0 0.0
2014-Jul-31 07:33N 49°04' E 008°20'0 0.0
2014-Jul-31 06:33N 49°04' E 008°20'0 0.0
2014-Jul-31 05:33N 49°04' E 008°20'0 0.0
2014-Jul-31 04:33N 49°04' E 008°20'0 0.0
2014-Jul-31 03:33N 49°04' E 008°20'0 0.0
2014-Jul-31 02:33N 49°04' E 008°20'0 0.0
2014-Jul-31 01:33N 49°04' E 008°20'0 0.0
2014-Jul-31 00:33N 49°04' E 008°20'0 0.0
2014-Jul-30 23:33N 49°04' E 008°20'0 0.0
2014-Jul-30 22:33N 49°04' E 008°20'0 0.0
2014-Jul-30 21:33N 49°04' E 008°20'0 0.0
2014-Jul-30 20:33N 49°04' E 008°20'0 0.0
2014-Jul-30 19:33N 49°04' E 008°20'0 0.0
2014-Jul-30 18:33N 49°04' E 008°20'0 0.0
2014-Jul-30 17:33N 49°04' E 008°20'0 0.0
2014-Jul-30 16:33N 49°04' E 008°20'3 3.3
2014-Jul-30 15:33N 49°07' E 008°22'6 5.7
2014-Jul-30 14:33N 49°13' E 008°23'6 5.8
2014-Jul-30 13:33N 49°17' E 008°29'2 1.5
2014-Jul-30 12:29N 49°18' E 008°28'0 0.0
2014-Jul-30 11:33N 49°18' E 008°28'0 0.0
2014-Jul-30 10:33N 49°18' E 008°28'0 0.0
2014-Jul-30 09:29N 49°18' E 008°28'0 0.0
2014-Jul-30 08:33N 49°18' E 008°28'0 0.0
2014-Jul-30 07:33N 49°18' E 008°28'0 0.0
2014-Jul-30 06:33N 49°18' E 008°28'0 0.0
2014-Jul-30 05:29N 49°18' E 008°28'0 0.0
2014-Jul-30 04:31N 49°18' E 008°28'0 0.0
2014-Jul-30 03:32N 49°18' E 008°28'1 1.2
2014-Jul-30 02:26N 49°18' E 008°29'910.4
2014-Jul-30 01:33N 49°10' E 008°22'6 6.1
2014-Jul-30 00:33N 49°04' E 008°20'0 0.0
2014-Jul-29 23:33N 49°04' E 008°20'0 0.0
2014-Jul-29 22:33N 49°04' E 008°20'0 0.0
2014-Jul-29 21:33N 49°04' E 008°20'0 0.0
2014-Jul-29 20:33N 49°04' E 008°20'0 0.0
2014-Jul-29 19:33N 49°04' E 008°20'0 0.0
2014-Jul-29 18:33N 49°04' E 008°20'0 0.0
2014-Jul-29 17:33N 49°04' E 008°20'0 0.1
2014-Jul-29 16:33N 49°04' E 008°20'0 0.1
2014-Jul-29 15:33N 49°04' E 008°20'0 0.0
2014-Jul-29 14:33N 49°04' E 008°20'3 2.6
2014-Jul-29 13:33N 49°02' E 008°18'1010.2
2014-Jul-29 12:33N 48°54' E 008°09'14 7.0
2014-Jul-29 10:33N 48°42' E 007°57'237 5.5
2014-Jul-27 15:32N 51°36' E 003°45'3 2.9
2014-Jul-27 14:32N 51°37' E 003°50'2 1.9
2014-Jul-27 13:33N 51°37' E 003°53'1 0.5
2014-Jul-27 12:28N 51°37' E 003°52'3 3.0
2014-Jul-27 11:33N 51°37' E 003°48'3 1.3
2014-Jul-27 09:31N 51°36' E 003°44'1 0.6
2014-Jul-27 08:30N 51°36' E 003°44'2381213.5
2014-Jul-27 08:19N 48°41' E 007°54'238314.1
2014-Jul-27 07:33N 51°36' E 003°43'2386116.1
2014-Jul-27 07:31N 48°43' E 007°57'  
2014-Jul-24 12:19N 51°36' E 003°43'3 4.0
2014-Jul-24 11:33N 51°37' E 003°48'2 2.0
2014-Jul-24 10:32N 51°37' E 003°51'0 0.1
2014-Jul-24 07:18N 51°36' E 003°51'2 2.4
2014-Jul-24 06:33N 51°37' E 003°48'3 0.2
2014-Jul-23 17:17N 51°36' E 003°43'3 3.9
2014-Jul-23 16:33N 51°37' E 003°47'3 3.0
2014-Jul-23 15:33N 51°36' E 003°52'1 1.0
2014-Jul-23 14:33N 51°37' E 003°51'1 0.5
2014-Jul-23 12:31N 51°36' E 003°51'1 1.2
2014-Jul-23 11:33N 51°37' E 003°52'4 3.6
2014-Jul-23 10:32N 51°36' E 003°46'  
Track history (hours):
 
Tides and Currents Weather Stations Pressure Air Temp Water Temp Dewpoint Dewpoint Depression Visibility Wind Speed Wind Dir Waves Ship Positions

Stefarion

Last reported at 2014-Jul-31 23:33 UTC. Time now 2014-Jul-31 23:39 UTC.
Position N 49°04' E 008°20'.

Length 12 m.

Type: Sailing vessel. MMSI: 211203080.

Date/timePositionNaut miles runAvg speedWind from/ knotsBaromVisibWave heightAir tempDewpointWater temp
2014-Jul-31 23:33N 49°04' E 008°20'0 0.0
2014-Jul-31 22:33N 49°04' E 008°20'0 0.0
2014-Jul-31 21:33N 49°04' E 008°20'0 0.0
2014-Jul-31 20:33N 49°04' E 008°20'0 0.1
2014-Jul-31 19:33N 49°04' E 008°20'0 0.0
2014-Jul-31 18:33N 49°04' E 008°20'0 0.0
2014-Jul-31 17:33N 49°04' E 008°20'0 0.0
2014-Jul-31 16:33N 49°04' E 008°20'0 0.0
2014-Jul-31 15:33N 49°04' E 008°20'0 0.0
2014-Jul-31 14:33N 49°04' E 008°20'0 0.0
2014-Jul-31 13:33N 49°04' E 008°20'0 0.0
2014-Jul-31 12:33N 49°04' E 008°20'0 0.0
2014-Jul-31 11:33N 49°04' E 008°20'0 0.0
2014-Jul-31 10:33N 49°04' E 008°20'0 0.1
2014-Jul-31 09:33N 49°04' E 008°20'0 0.0
2014-Jul-31 08:33N 49°04' E 008°20'0 0.0
2014-Jul-31 07:33N 49°04' E 008°20'0 0.0
2014-Jul-31 06:33N 49°04' E 008°20'0 0.0
2014-Jul-31 05:33N 49°04' E 008°20'0 0.0
2014-Jul-31 04:33N 49°04' E 008°20'0 0.0
2014-Jul-31 03:33N 49°04' E 008°20'0 0.0
2014-Jul-31 02:33N 49°04' E 008°20'0 0.0
2014-Jul-31 01:33N 49°04' E 008°20'0 0.0
2014-Jul-31 00:33N 49°04' E 008°20'0 0.0
2014-Jul-30 23:33N 49°04' E 008°20'0 0.0
2014-Jul-30 22:33N 49°04' E 008°20'0 0.0
2014-Jul-30 21:33N 49°04' E 008°20'0 0.0
2014-Jul-30 20:33N 49°04' E 008°20'0 0.0
2014-Jul-30 19:33N 49°04' E 008°20'0 0.0
2014-Jul-30 18:33N 49°04' E 008°20'0 0.0
2014-Jul-30 17:33N 49°04' E 008°20'0 0.0
2014-Jul-30 16:33N 49°04' E 008°20'3 3.3
2014-Jul-30 15:33N 49°07' E 008°22'6 5.7
2014-Jul-30 14:33N 49°13' E 008°23'6 5.8
2014-Jul-30 13:33N 49°17' E 008°29'2 1.5
2014-Jul-30 12:29N 49°18' E 008°28'0 0.0
2014-Jul-30 11:33N 49°18' E 008°28'0 0.0
2014-Jul-30 10:33N 49°18' E 008°28'0 0.0
2014-Jul-30 09:29N 49°18' E 008°28'0 0.0
2014-Jul-30 08:33N 49°18' E 008°28'0 0.0
2014-Jul-30 07:33N 49°18' E 008°28'0 0.0
2014-Jul-30 06:33N 49°18' E 008°28'0 0.0
2014-Jul-30 05:29N 49°18' E 008°28'0 0.0
2014-Jul-30 04:31N 49°18' E 008°28'0 0.0
2014-Jul-30 03:32N 49°18' E 008°28'1 1.2
2014-Jul-30 02:26N 49°18' E 008°29'910.4
2014-Jul-30 01:33N 49°10' E 008°22'6 6.1
2014-Jul-30 00:33N 49°04' E 008°20'0 0.0
2014-Jul-29 23:33N 49°04' E 008°20'0 0.0
2014-Jul-29 22:33N 49°04' E 008°20'0 0.0
2014-Jul-29 21:33N 49°04' E 008°20'0 0.0
2014-Jul-29 20:33N 49°04' E 008°20'0 0.0
2014-Jul-29 19:33N 49°04' E 008°20'0 0.0
2014-Jul-29 18:33N 49°04' E 008°20'0 0.0
2014-Jul-29 17:33N 49°04' E 008°20'0 0.1
2014-Jul-29 16:33N 49°04' E 008°20'0 0.1
2014-Jul-29 15:33N 49°04' E 008°20'0 0.0
2014-Jul-29 14:33N 49°04' E 008°20'3 2.6
2014-Jul-29 13:33N 49°02' E 008°18'1010.2
2014-Jul-29 12:33N 48°54' E 008°09'14 7.0
2014-Jul-29 10:33N 48°42' E 007°57'237 5.5
2014-Jul-27 15:32N 51°36' E 003°45'3 2.9
2014-Jul-27 14:32N 51°37' E 003°50'2 1.9
2014-Jul-27 13:33N 51°37' E 003°53'1 0.5
2014-Jul-27 12:28N 51°37' E 003°52'3 3.0
2014-Jul-27 11:33N 51°37' E 003°48'3 1.3
2014-Jul-27 09:31N 51°36' E 003°44'1 0.6
2014-Jul-27 08:30N 51°36' E 003°44'2381213.5
2014-Jul-27 08:19N 48°41' E 007°54'238314.1
2014-Jul-27 07:33N 51°36' E 003°43'2386116.1
2014-Jul-27 07:31N 48°43' E 007°57'  
2014-Jul-24 12:19N 51°36' E 003°43'3 4.0
2014-Jul-24 11:33N 51°37' E 003°48'2 2.0
2014-Jul-24 10:32N 51°37' E 003°51'0 0.1
2014-Jul-24 07:18N 51°36' E 003°51'2 2.4
2014-Jul-24 06:33N 51°37' E 003°48'3 0.2
2014-Jul-23 17:17N 51°36' E 003°43'3 3.9
2014-Jul-23 16:33N 51°37' E 003°47'3 3.0
2014-Jul-23 15:33N 51°36' E 003°52'1 1.0
2014-Jul-23 14:33N 51°37' E 003°51'1 0.5
2014-Jul-23 12:31N 51°36' E 003°51'1 1.2
2014-Jul-23 11:33N 51°37' E 003°52'4 3.6
2014-Jul-23 10:32N 51°36' E 003°46'  

Dump ship's entire track history